Worthington, OH (43085)

3:14 AM EST on February 08, 2016 (GMT -0500)
WX8Q Worthington Estates East | | Change Station
CLOSE
Current Station
Personal Weather Station
Location: Worthington, OH
Elevation: 922 ft
Nearby Weather Stations

Elev 922 ft 40.10 °N, 83.01 °W | Updated 54 seconds ago

Rain
Rain
40.1 °F
Feels Like 40 °F
N
0.0
Wind Variable Wind from South
Gusts 0.0 mph

Today
High -- | Low -- °F
--% Chance of Precip.
Yesterday
High -- | Low -- °F
Precip. -- in
Pressure 29.71 in
Visibility 10.0 miles
Clouds Few 2600 ft
Overcast 3400 ft
Windchill 40 °F
Dew Point 32 °F
Humidity 73%
Rainfall 0.00 in
Snow Depth Not available.
7:34 AM 5:58 PM
Waning Crescent, 0% visible
METAR KOSU 080753Z AUTO 17006KT 10SM -RA FEW026 OVC034 04/02 A2970 RMK AO2 SLP059 P0000 T00440017
Pressure 29.71 in
Visibility 10.0 miles
Clouds Few 2600 ft
Overcast 3400 ft
Windchill 40 °F
Dew Point 32 °F
Humidity 73%
Rainfall 0.00 in
Snow Depth Not available.
7:34 AM 5:58 PM
Waning Crescent, 0% visible
METAR KOSU 080753Z AUTO 17006KT 10SM -RA FEW026 OVC034 04/02 A2970 RMK AO2 SLP059 P0000 T00440017

10-Day Weather Forecast

Almanac

Astronomy

Feb. 08, 2016 Rise Set
Actual Time
Civil Twilight
Nautical Twilight
Astronomical Twilight
Moon
Length of Visible Light
Length of Day
Tomorrow will be .
, % of the Moon is Illuminated

Today's Extremes

State Highs State Lows

Community

WunderPhotos

Upload Photos

1,891,412 photos uploaded!

WunderBlog® & News

Nearby

Air Quality

  Air Quality AQ Index Pollutant
Not available.

Snow Depth

Station Depth Elevation

Earthquake Activity

City Distance Mag. Time & Date
Minimum magnitude displayed is 2.5.

Coastal Water Temperatures

Place Temperature

Stations

Nearby Weather Stations

Station Location Temp. Windchill Dew Point Humidity Wind Precip. Elev Updated Type
                   

Watches & Warnings

There are currently no watches in effect.